Aeroporto :
LOGIN :

Iscrizione | Disclaimer

   EN    FR    IT 

 










Sommario :    VFR   VFR Marginale   IFR   IFR Intensivo   IFR Molto Intensivo
Visibilità : 
Base nubi : 
>= 8 km
>= 3000ft
5 / 8 km
1000 / 3000 ft
1500m / 5 km
500 / 1000 ft
800 / 1500m
200 / 500 ft
< 800m
< 200 ft
Simboli :   Temporali  Nebbia  Neve Forte  Precipitazioni Forti  Vento > 20 kt
SIGMETs :   Varie  Temporali  Ghiacco  Turbolenza  Onda orograficha  Ceneri Vulcaniche






- Altitudine del aeroporto : 1299 ft


EDTY - Adolf Würth

ULTIMO METAR :
  • 071550Z 06008KT CAVOK 25/03 Q1021

METARs OBSOLETI :
  • 071520Z 05006KT 010V090 CAVOK 25/02 Q1021
  • 071450Z 06008KT 030V090 CAVOK 25/04 Q1021
  • 071420Z 06009KT 360V100 CAVOK 25/04 Q1021
  • 071350Z 03008KT 350V070 CAVOK 25/04 Q1021
  • 071320Z VRB06KT CAVOK 25/05 Q1021

TAF TAF EDTY
Valido dal 07 a 15 ore il 08 a 00 ore UTC


071400Z 0715/0724 04008KT CAVOK
BECMG 0718/0720 03003KT



MetMap, La meteo Aeronautica in un colpo d'occhio ! - Copyright ORBIFLY Dicembre 2007 - Disclaimer

ORBIFLY MET'MAP TEAM :

Programmazione e sviluppo : Alexandra Zaïnal
Concezione : Baudouin d'Aumeries
Supporto tecnico e logistico : Manuel Goepfert
Aiuto : Marc-Olivier Méhu
Aiuto per la traduzione : Arnaldo La Scala




FONTI E CREDITI :

   NOAA